»·PEaware :: SKW4602 KSLC-KBOI

SKW4602 :: KSLC-KBOI

FLIGHT INFORMATION

Flight Status: Arrived
Operator:
SkyWest Airlines
More flights by this operator :: More flights under this callsign
Pilot: Frank G. (18999)
Aircraft: EMBRAER EMB-170/175
(E170)
More flights by this aircraft type
Origin: KSLC Salt Lake City Intl
United States
Destination: KBOI Boise Air Terminal/Gowen
United States
More flights between these airports :: More routes between these airports
Route: TWF4 TWF BROPH SPUUD3
File this flight plan on PilotEdge
Remarks:
Altitude:
(Current/Filed)
26,000ft
Speed:
(Current/Filed)
373kts
Departed: 25-Apr-18 08:34 AM
Arrived: 25-Apr-18 09:43 AM
Distance/Time
Traveled:
252nm/1:09
Distance/Time
To Go:
Arrived

Flight Plot

Page will automatically refresh every two minutes.

Flight plan parsing failed; only flown route is shown


Map Options




Map Legend


Flown Route
Filed Route
Departure Airport
Arrival Airport
Navaid (VOR, NDB)
Fix

Horizontal Profiles

Position Reports

Time Latitude Longitude Heading Altitude Ground
Speed
25-Apr-18 08:00 40.787829 -111.977872 265 4238ft 0kts
25-Apr-18 08:01 40.787829 -111.977872 265 4238ft 0kts
25-Apr-18 08:02 40.787829 -111.977872 265 4238ft 0kts
25-Apr-18 08:03 40.787829 -111.977872 265 4238ft 0kts
25-Apr-18 08:04 40.787829 -111.977872 265 4238ft 0kts
25-Apr-18 08:05 40.787829 -111.977872 265 4238ft 0kts
25-Apr-18 08:06 40.787829 -111.977872 265 4238ft 0kts
25-Apr-18 08:07 40.787829 -111.977872 265 4238ft 0kts
25-Apr-18 08:08 40.787829 -111.977872 265 4238ft 0kts
25-Apr-18 08:09 40.787829 -111.977872 265 4238ft 0kts
25-Apr-18 08:10 40.787829 -111.977872 265 4238ft 0kts
25-Apr-18 08:11 40.787829 -111.977872 265 4238ft 0kts
25-Apr-18 08:12 40.787829 -111.977872 265 4238ft 0kts
25-Apr-18 08:13 40.787829 -111.977872 265 4238ft 0kts
25-Apr-18 08:14 40.787829 -111.977872 265 4238ft 0kts
25-Apr-18 08:15 40.787829 -111.977872 265 4238ft 0kts
25-Apr-18 08:16 40.787829 -111.977872 265 4238ft 0kts
25-Apr-18 08:17 40.787829 -111.977872 265 4238ft 0kts
25-Apr-18 08:18 40.787829 -111.977872 265 4238ft 0kts
25-Apr-18 08:19 40.787830 -111.977872 265 4238ft 0kts
25-Apr-18 08:20 40.787808 -111.977091 289 4238ft 2kts
25-Apr-18 08:21 40.787515 -111.976859 355 4238ft 0kts
25-Apr-18 08:22 40.787515 -111.976859 355 4238ft 0kts
25-Apr-18 08:23 40.787515 -111.976859 355 4238ft 0kts
25-Apr-18 08:24 40.787515 -111.976859 355 4238ft 0kts
25-Apr-18 08:25 40.787515 -111.976859 355 4238ft 0kts
25-Apr-18 08:26 40.787515 -111.976859 355 4238ft 0kts
25-Apr-18 08:27 40.787933 -111.976904 355 4238ft 8kts
25-Apr-18 08:28 40.792964 -111.977461 355 4238ft 21kts
25-Apr-18 08:29 40.799337 -111.978185 354 4238ft 24kts
25-Apr-18 08:30 40.806281 -111.978995 355 4238ft 25kts
25-Apr-18 08:31 40.807479 -111.978372 78 4238ft 0kts
25-Apr-18 08:32 40.807492 -111.977675 115 4238ft 6kts
25-Apr-18 08:33 40.803875 -111.976435 174 4238ft 73kts
25-Apr-18 08:34 40.757937 -111.971131 176 5062ft 206kts
25-Apr-18 08:35 40.736255 -112.034149 284 6834ft 241kts
25-Apr-18 08:36 40.783858 -112.100880 294 8683ft 274kts
25-Apr-18 08:37 40.804639 -112.198586 291 10541ft 283kts
25-Apr-18 08:38 40.832677 -112.303126 286 12633ft 326kts
25-Apr-18 08:39 40.905443 -112.368677 353 14881ft 360kts
25-Apr-18 08:40 41.003476 -112.401029 339 17092ft 369kts
25-Apr-18 08:41 41.100543 -112.449698 323 19295ft 377kts
25-Apr-18 08:42 41.188854 -112.528521 321 21519ft 386kts
25-Apr-18 08:43 41.275296 -112.616726 318 23249ft 397kts
25-Apr-18 08:44 41.351440 -112.727468 311 24981ft 408kts
25-Apr-18 08:45 41.427700 -112.839803 310 26308ft 407kts
25-Apr-18 08:46 41.500177 -112.950482 309 26333ft 380kts
25-Apr-18 08:47 41.566839 -113.052750 309 26334ft 363kts
25-Apr-18 08:48 41.635488 -113.158500 309 26338ft 383kts
25-Apr-18 08:49 41.705509 -113.266631 309 26333ft 386kts
25-Apr-18 08:50 41.775939 -113.375765 309 26323ft 386kts
25-Apr-18 08:51 41.846054 -113.484803 309 26323ft 386kts
25-Apr-18 08:52 41.916077 -113.594103 309 26323ft 386kts
25-Apr-18 08:53 41.986299 -113.704120 309 26305ft 387kts
25-Apr-18 08:54 42.056196 -113.814020 308 26297ft 387kts
25-Apr-18 08:55 42.125987 -113.924181 308 26296ft 387kts
25-Apr-18 08:56 42.195902 -114.034936 308 26296ft 387kts
25-Apr-18 08:57 42.265472 -114.145557 308 26296ft 387kts
25-Apr-18 08:58 42.334935 -114.256422 308 26289ft 386kts
25-Apr-18 08:59 42.404430 -114.367759 308 26289ft 386kts
25-Apr-18 09:00 42.473618 -114.479022 307 26289ft 387kts
25-Apr-18 09:01 42.543347 -114.590348 308 26289ft 386kts
25-Apr-18 09:02 42.613390 -114.702290 307 25496ft 397kts
25-Apr-18 09:03 42.684287 -114.815996 307 23393ft 391kts
25-Apr-18 09:04 42.755621 -114.925957 311 21995ft 385kts
25-Apr-18 09:05 42.829013 -115.030736 311 20996ft 380kts
25-Apr-18 09:06 42.901237 -115.134384 311 19732ft 374kts
25-Apr-18 09:07 42.960260 -115.219648 311 17641ft 361kts
25-Apr-18 09:08 43.027970 -115.318030 311 15553ft 350kts
25-Apr-18 09:09 43.093492 -115.413607 311 13420ft 339kts
25-Apr-18 09:10 43.157281 -115.506951 311 11964ft 330kts
25-Apr-18 09:11 43.215566 -115.592232 311 11429ft 286kts
25-Apr-18 09:12 43.268754 -115.670650 309 10237ft 276kts
25-Apr-18 09:13 43.304893 -115.763835 296 10025ft 277kts
25-Apr-18 09:14 43.340313 -115.857583 296 10025ft 277kts
25-Apr-18 09:15 43.375751 -115.951965 296 10024ft 277kts
25-Apr-18 09:16 43.410963 -116.046155 295 10026ft 277kts
25-Apr-18 09:17 43.446036 -116.141150 295 8993ft 273kts
25-Apr-18 09:18 43.477810 -116.229397 294 7620ft 244kts
25-Apr-18 09:19 43.505766 -116.312235 294 7062ft 239kts
25-Apr-18 09:20 43.560548 -116.348078 356 7034ft 237kts
25-Apr-18 09:21 43.612248 -116.389881 282 7044ft 238kts
25-Apr-18 09:22 43.619546 -116.480371 273 7024ft 237kts
25-Apr-18 09:23 43.624304 -116.571487 273 7013ft 237kts
25-Apr-18 09:24 43.645542 -116.655550 337 5553ft 259kts
25-Apr-18 09:25 43.689425 -116.611074 79 5082ft 206kts
25-Apr-18 09:26 43.694881 -116.536454 106 4968ft 191kts
25-Apr-18 09:27 43.672893 -116.475715 82 5028ft 193kts
25-Apr-18 09:28 43.647146 -116.415715 134 4994ft 199kts
25-Apr-18 09:29 43.601783 -116.399687 226 5034ft 198kts
25-Apr-18 09:30 43.567806 -116.458154 233 4986ft 194kts
25-Apr-18 09:31 43.561881 -116.525047 293 5020ft 200kts
25-Apr-18 09:32 43.583122 -116.594520 293 4992ft 192kts
25-Apr-18 09:33 43.608908 -116.657998 343 4969ft 194kts
25-Apr-18 09:34 43.660660 -116.638457 24 4995ft 194kts
25-Apr-18 09:35 43.677004 -116.573517 85 4998ft 190kts
25-Apr-18 09:36 43.660632 -116.506535 116 4996ft 188kts
25-Apr-18 09:37 43.637928 -116.441976 114 4985ft 185kts
25-Apr-18 09:38 43.615921 -116.377250 114 4996ft 185kts
25-Apr-18 09:39 43.595326 -116.316806 114 4097ft 156kts
25-Apr-18 09:40 43.577858 -116.265561 114 3292ft 143kts
25-Apr-18 09:41 43.562147 -116.219471 115 2882ft 89kts
25-Apr-18 09:42 43.560308 -116.212552 44 2882ft 0kts
25-Apr-18 09:43 43.562073 -116.211188 24 2882ft 6kts
25-Apr-18 09:44 43.562820 -116.211408 301 2882ft 8kts
25-Apr-18 09:45 43.564504 -116.216048 331 2882ft 16kts
25-Apr-18 09:46 43.567457 -116.216569 309 2882ft 4kts
25-Apr-18 09:47 43.567341 -116.218163 259 2882ft 0kts
25-Apr-18 09:48 43.567341 -116.218164 259 2882ft 0kts
25-Apr-18 09:49 43.567341 -116.218164 259 2882ft 0kts

Navigation Log

Ident Type
Flight plan parsing failed, navigation log unavailable